Time;durP1;ratioP1;P1;durP2;ratioP2;P2;SDS_P1;SDS_P2;PMS_P1;PMS_P2;Temp;Humidity;BMP_temperature;BMP_pressure;BME280_temperature;BME280_humidity;BME280_pressure;Samples;Min_cycle;Max_cycle;Signal;HPM_P1;HPM_P2
2021/09/22 00:04:27;;;;;;;20.33;12.82;;;;;;;11.50;100.00;95351.19;10347758;28;20042;-67
2021/09/22 00:09:29;;;;;;;19.83;12.70;;;;;;;11.44;100.00;95342.28;10363891;28;20084;-65
2021/09/22 00:14:29;;;;;;;22.33;13.00;;;;;;;11.44;100.00;95331.53;10363902;28;20407;-67
2021/09/22 00:19:30;;;;;;;21.58;14.75;;;;;;;11.30;100.00;95331.19;10364372;28;20033;-66
2021/09/22 00:24:30;;;;;;;21.92;13.10;;;;;;;11.55;100.00;95327.00;10363615;28;20080;-67
2021/09/22 00:29:31;;;;;;;21.92;14.45;;;;;;;11.63;100.00;95316.50;10365153;28;20033;-66
2021/09/22 00:34:31;;;;;;;23.63;15.18;;;;;;;11.30;100.00;95306.97;10366406;28;20022;-73
2021/09/22 00:39:35;;;;;;;24.55;14.82;;;;;;;11.22;100.00;95310.16;10371635;28;20455;-70
2021/09/22 00:44:56;;;;;;;26.60;15.27;;;;;;;10.99;100.00;95314.91;10371358;28;20034;-70
2021/09/22 00:49:57;;;;;;;25.88;14.25;;;;;;;11.10;100.00;95313.09;10373088;28;20682;-67
2021/09/22 00:54:57;;;;;;;28.63;16.75;;;;;;;11.07;100.00;95314.41;10370976;28;20128;-68
2021/09/22 00:59:58;;;;;;;31.33;15.65;;;;;;;10.96;100.00;95306.56;10370792;28;20025;-68
2021/09/22 01:04:58;;;;;;;25.33;16.40;;;;;;;10.90;100.00;95295.00;10354380;28;20025;-67
2021/09/22 01:09:58;;;;;;;27.33;17.05;;;;;;;10.83;100.00;95297.06;10354437;28;20072;-67
2021/09/22 01:14:59;;;;;;;29.13;16.55;;;;;;;10.84;100.00;95290.63;10337906;28;20124;-68
2021/09/22 01:20:01;;;;;;;23.40;14.18;;;;;;;10.85;100.00;95263.47;10369241;28;20030;-65
2021/09/22 01:25:02;;;;;;;24.33;14.32;;;;;;;10.92;100.00;95274.81;10370023;28;20026;-67
2021/09/22 01:30:03;;;;;;;20.02;12.85;;;;;;;10.99;100.00;95268.41;10369878;28;20026;-71
2021/09/22 01:35:03;;;;;;;22.40;13.65;;;;;;;10.99;100.00;95269.19;10369406;28;20064;-67
2021/09/22 01:40:05;;;;;;;22.55;13.90;;;;;;;10.97;100.00;95262.44;10369040;28;20026;-66
2021/09/22 01:45:08;;;;;;;21.02;12.07;;;;;;;11.03;100.00;95251.47;10368453;28;20172;-66
2021/09/22 01:50:15;;;;;;;22.67;12.73;;;;;;;10.94;100.00;95259.22;10368859;28;20025;-66
2021/09/22 01:55:23;;;;;;;14.75;9.77;;;;;;;10.82;100.00;95252.47;10368327;28;20046;-67
2021/09/22 02:00:23;;;;;;;17.95;11.52;;;;;;;10.74;100.00;95246.50;10368858;28;20026;-72
2021/09/22 02:05:24;;;;;;;18.52;11.07;;;;;;;10.58;100.00;95260.94;10369762;28;20033;-66
2021/09/22 02:10:24;;;;;;;15.77;10.93;;;;;;;10.47;100.00;95259.25;10351761;28;20022;-75
2021/09/22 02:15:25;;;;;;;18.23;10.57;;;;;;;10.56;100.00;95253.13;10368398;28;20198;-68
2021/09/22 02:20:26;;;;;;;14.85;9.65;;;;;;;10.50;100.00;95234.53;10351807;28;20025;-71
2021/09/22 02:25:27;;;;;;;17.27;9.93;;;;;;;10.50;100.00;95250.66;10368256;28;20110;-67
2021/09/22 02:30:27;;;;;;;16.83;11.05;;;;;;;10.31;100.00;95261.81;10351325;28;20464;-67
2021/09/22 02:35:28;;;;;;;18.35;9.48;;;;;;;10.29;100.00;95266.63;10351245;28;20114;-74
2021/09/22 02:40:28;;;;;;;15.40;9.32;;;;;;;10.36;100.00;95269.91;10366687;28;20121;-67
2021/09/22 02:45:28;;;;;;;12.93;8.87;;;;;;;10.35;100.00;95265.59;10366796;28;20014;-67
2021/09/22 02:50:29;;;;;;;23.08;9.65;;;;;;;10.31;100.00;95269.88;10366513;28;20781;-73
2021/09/22 02:55:29;;;;;;;13.13;8.70;;;;;;;10.21;100.00;95251.81;10366414;28;20054;-70
2021/09/22 03:00:30;;;;;;;15.48;10.27;;;;;;;10.34;100.00;95263.16;10365524;28;20125;-67
2021/09/22 03:05:30;;;;;;;14.23;9.43;;;;;;;10.32;100.00;95254.56;10367251;28;20030;-68
2021/09/22 03:10:31;;;;;;;15.25;9.95;;;;;;;10.25;100.00;95246.72;10365852;28;20022;-69
2021/09/22 03:15:31;;;;;;;15.27;10.05;;;;;;;10.35;100.00;95244.13;10365572;28;20509;-68
2021/09/22 03:20:32;;;;;;;15.82;10.43;;;;;;;10.37;100.00;95251.94;10366940;28;20080;-74
2021/09/22 03:25:33;;;;;;;13.55;9.63;;;;;;;10.30;100.00;95246.75;10365268;28;20045;-72
2021/09/22 03:30:33;;;;;;;13.00;9.32;;;;;;;10.32;100.00;95249.19;10364923;28;20480;-70
2021/09/22 03:35:34;;;;;;;13.77;9.88;;;;;;;10.39;100.00;95255.16;10364963;28;20045;-70
2021/09/22 03:40:35;;;;;;;13.70;9.45;;;;;;;10.38;100.00;95256.22;10364862;28;20026;-68
2021/09/22 03:45:35;;;;;;;13.10;9.05;;;;;;;10.37;100.00;95252.75;10364264;28;20084;-67
2021/09/22 03:50:36;;;;;;;13.52;10.40;;;;;;;10.28;100.00;95243.50;10364802;28;20510;-65
2021/09/22 03:55:36;;;;;;;14.40;10.00;;;;;;;10.54;100.00;95238.34;10365471;28;20452;-69
2021/09/22 04:00:37;;;;;;;15.57;10.02;;;;;;;10.67;100.00;95231.69;10380504;28;20393;-74
2021/09/22 04:05:38;;;;;;;21.05;10.40;;;;;;;10.68;100.00;95225.22;10364114;28;20059;-71
2021/09/22 04:10:39;;;;;;;13.48;9.00;;;;;;;10.63;100.00;95225.19;10370039;28;20025;-71
2021/09/22 04:15:39;;;;;;;17.10;9.90;;;;;;;10.31;100.00;95226.88;10404599;28;20438;-67
2021/09/22 04:20:40;;;;;;;16.20;9.77;;;;;;;10.46;100.00;95236.13;10405183;28;20048;-66
2021/09/22 04:25:40;;;;;;;16.00;10.10;;;;;;;10.35;100.00;95237.94;10388146;28;20030;-68
2021/09/22 04:30:40;;;;;;;17.77;10.80;;;;;;;10.43;100.00;95213.28;10404479;28;20048;-74
2021/09/22 04:35:41;;;;;;;13.27;10.15;;;;;;;10.56;100.00;95212.81;10404480;28;20028;-72
2021/09/22 04:40:41;;;;;;;17.10;10.50;;;;;;;10.55;100.00;95205.81;10402843;28;20026;-68
2021/09/22 04:45:45;;;;;;;13.52;9.00;;;;;;;10.77;100.00;95192.22;10403949;28;20040;-67
2021/09/22 04:50:46;;;;;;;13.80;9.05;;;;;;;10.77;100.00;95176.09;10404257;28;20029;-72
2021/09/22 04:55:46;;;;;;;14.45;9.75;;;;;;;10.88;100.00;95187.66;10403733;28;20049;-67
2021/09/22 05:00:47;;;;;;;14.23;9.73;;;;;;;10.64;100.00;95189.19;10405006;28;20038;-69
2021/09/22 05:05:47;;;;;;;19.48;11.68;;;;;;;10.99;100.00;95201.16;10407121;28;20033;-67
2021/09/22 05:10:48;;;;;;;15.18;10.02;;;;;;;11.15;100.00;95186.69;10403647;28;20117;-71
2021/09/22 05:15:49;;;;;;;12.82;9.35;;;;;;;10.99;100.00;95199.28;10403447;28;20282;-67
2021/09/22 05:20:49;;;;;;;18.92;11.02;;;;;;;11.20;100.00;95189.38;10403638;28;20517;-66
2021/09/22 05:25:50;;;;;;;12.32;9.35;;;;;;;11.06;100.00;95194.44;10410767;28;20037;-67
2021/09/22 05:30:50;;;;;;;13.73;9.00;;;;;;;11.13;100.00;95182.63;10410325;28;20028;-70
2021/09/22 05:35:51;;;;;;;14.57;8.60;;;;;;;11.15;100.00;95185.88;10410057;28;20021;-67
2021/09/22 05:40:51;;;;;;;14.18;8.57;;;;;;;11.26;100.00;95191.00;10411350;28;20056;-67
2021/09/22 05:45:52;;;;;;;11.50;8.35;;;;;;;11.50;100.00;95187.00;10411061;28;20041;-72
2021/09/22 05:50:52;;;;;;;12.18;8.60;;;;;;;11.35;100.00;95191.28;10409773;28;20601;-66
2021/09/22 05:55:53;;;;;;;16.95;9.10;;;;;;;11.37;100.00;95183.78;10409229;28;20041;-67
2021/09/22 06:00:53;;;;;;;16.30;10.40;;;;;;;11.52;100.00;95180.28;10408996;28;20145;-67
2021/09/22 06:05:53;;;;;;;11.35;7.90;;;;;;;11.38;99.67;95189.97;10409161;28;20030;-71
2021/09/22 06:10:55;;;;;;;15.50;8.65;;;;;;;11.60;100.00;95190.50;10410097;28;20033;-74
2021/09/22 06:15:55;;;;;;;10.13;7.40;;;;;;;11.45;99.60;95177.84;10409134;28;20057;-69
2021/09/22 06:20:56;;;;;;;9.75;7.03;;;;;;;11.85;98.49;95174.66;10399854;28;20613;-69
2021/09/22 06:25:57;;;;;;;14.93;7.97;;;;;;;11.88;99.81;95169.50;10345238;28;20423;-69
2021/09/22 06:30:57;;;;;;;13.07;7.60;;;;;;;11.83;98.42;95179.47;10327570;28;20030;-70
2021/09/22 06:36:00;;;;;;;11.65;7.20;;;;;;;11.67;92.79;95179.50;10338619;28;20106;-67
2021/09/22 06:41:00;;;;;;;11.82;7.03;;;;;;;11.88;94.73;95182.19;10407577;28;20026;-68
2021/09/22 06:46:01;;;;;;;13.57;7.68;;;;;;;11.86;98.90;95177.06;10339548;28;20030;-67
2021/09/22 06:51:01;;;;;;;12.68;7.30;;;;;;;11.45;93.44;95187.81;10354010;28;20557;-67
2021/09/22 06:56:02;;;;;;;10.80;6.75;;;;;;;11.10;99.28;95168.63;10365054;28;20141;-68
2021/09/22 07:01:02;;;;;;;14.27;7.95;;;;;;;10.93;100.00;95184.19;10336236;28;20069;-69
2021/09/22 07:06:03;;;;;;;12.02;7.18;;;;;;;11.08;100.00;95184.25;10348971;28;20022;-68
2021/09/22 07:11:04;;;;;;;11.93;7.30;;;;;;;11.20;100.00;95191.25;10361530;28;20415;-66
2021/09/22 07:16:05;;;;;;;12.90;7.72;;;;;;;11.57;97.29;95191.06;10369641;28;20033;-75
2021/09/22 07:21:06;;;;;;;15.10;7.28;;;;;;;11.82;95.52;95191.31;10361787;28;20538;-72
2021/09/22 07:26:07;;;;;;;13.80;7.65;;;;;;;11.86;96.06;95187.03;10362275;28;20109;-72
2021/09/22 07:31:07;;;;;;;12.65;7.10;;;;;;;11.88;93.04;95184.88;10345432;28;20109;-67
2021/09/22 07:36:09;;;;;;;11.70;6.68;;;;;;;11.93;92.56;95196.47;10326589;28;20030;-67
2021/09/22 07:41:10;;;;;;;10.27;7.35;;;;;;;11.71;92.86;95183.25;10356584;28;20045;-68
2021/09/22 07:46:10;;;;;;;9.88;7.28;;;;;;;11.66;91.81;95185.94;10285087;23;20059;-86
2021/09/22 07:51:11;;;;;;;12.80;6.93;;;;;;;11.67;92.53;95187.56;10202494;28;20119;-86
2021/09/22 07:56:11;;;;;;;12.48;7.38;;;;;;;11.55;95.19;95185.13;10198588;28;20522;-85
2021/09/22 08:01:12;;;;;;;11.38;7.53;;;;;;;11.43;93.09;95188.06;10198600;28;20089;-85
2021/09/22 08:06:13;;;;;;;13.93;7.28;;;;;;;11.04;97.47;95190.44;10200792;28;20427;-84
2021/09/22 08:11:14;;;;;;;12.32;7.68;;;;;;;10.91;100.00;95178.25;10198034;28;20523;-84
2021/09/22 08:16:15;;;;;;;13.15;7.30;;;;;;;11.00;100.00;95174.00;10205951;28;20038;-87
2021/09/22 08:21:15;;;;;;;15.02;8.73;;;;;;;11.26;99.64;95174.03;10205025;28;20150;-85
2021/09/22 08:26:16;;;;;;;16.48;8.75;;;;;;;11.54;92.06;95162.00;10222954;28;20038;-87
2021/09/22 08:31:17;;;;;;;19.10;8.60;;;;;;;11.80;90.67;95160.13;10203295;28;20035;-89
2021/09/22 08:36:17;;;;;;;12.13;7.43;;;;;;;11.98;89.93;95151.78;10237221;28;20062;-89
2021/09/22 08:41:18;;;;;;;14.68;7.97;;;;;;;12.16;89.74;95161.19;10251002;28;20443;-88
2021/09/22 08:46:19;;;;;;;14.55;7.93;;;;;;;11.91;87.76;95146.63;10238668;29;20067;-90
2021/09/22 08:51:20;;;;;;;12.32;8.25;;;;;;;11.42;89.36;95148.78;10210060;29;20037;-87
2021/09/22 08:56:20;;;;;;;12.80;8.13;;;;;;;11.81;92.64;95147.44;10215013;28;20106;-85
2021/09/22 09:01:24;;;;;;;13.75;7.53;;;;;;;11.84;89.61;95138.03;10210083;28;20034;-85
2021/09/22 09:06:33;;;;;;;16.05;8.32;;;;;;;11.96;85.04;95130.50;10195878;28;20024;-88
2021/09/22 09:11:36;;;;;;;14.07;8.90;;;;;;;12.28;84.75;95134.75;10205799;29;20605;-89
2021/09/22 09:16:41;;;;;;;14.15;7.95;;;;;;;12.24;82.70;95131.78;10205789;29;20029;-87
2021/09/22 09:22:04;;;;;;;12.07;7.38;;;;;;;11.60;85.28;95139.38;10204167;29;20035;-90
2021/09/22 09:27:24;;;;;;;11.77;7.85;;;;;;;11.53;91.46;95111.13;10194040;29;20099;-90
2021/09/22 09:32:32;;;;;;;14.02;8.63;;;;;;;11.73;91.06;95115.66;10221371;29;20462;-89
2021/09/22 09:37:37;;;;;;;12.70;6.53;;;;;;;12.55;84.98;95112.81;10247603;29;20038;-91
2021/09/22 09:42:43;;;;;;;14.88;8.63;;;;;;;12.95;83.20;95107.50;10226262;28;20031;-90
2021/09/22 09:47:57;;;;;;;9.65;7.07;;;;;;;12.46;82.96;95104.50;10204691;29;20060;-90
2021/09/22 09:53:36;;;;;;;14.80;6.72;;;;;;;12.30;84.50;95108.31;10210991;29;20096;-90
2021/09/22 09:58:48;;;;;;;11.55;8.07;;;;;;;12.55;87.14;95107.41;10210581;29;20047;-90
2021/09/22 10:03:50;;;;;;;14.57;7.70;;;;;;;12.92;81.32;95103.47;10223527;29;20031;-90
2021/09/22 10:08:52;;;;;;;10.13;6.80;;;;;;;13.18;83.02;95089.78;10245545;28;20023;-91
2021/09/22 10:13:56;;;;;;;12.25;6.90;;;;;;;12.61;85.40;95092.00;10248396;29;20438;-89
2021/09/22 10:19:00;;;;;;;10.63;7.28;;;;;;;12.35;89.30;95100.22;10250905;28;20481;-89
2021/09/22 10:24:13;;;;;;;11.52;6.75;;;;;;;12.04;90.90;95094.09;10249125;29;20103;-88
2021/09/22 10:29:25;;;;;;;10.50;7.18;;;;;;;11.98;94.40;95089.81;10241933;28;20161;-88
2021/09/22 10:34:31;;;;;;;12.23;7.40;;;;;;;12.14;91.65;95088.69;10228893;29;20573;-91
2021/09/22 10:39:35;;;;;;;12.18;7.57;;;;;;;11.87;96.09;95075.53;10237864;29;20101;-89
2021/09/22 10:44:37;;;;;;;11.48;6.78;;;;;;;12.11;97.77;95071.19;10238833;29;20039;-89
2021/09/22 10:49:38;;;;;;;10.77;7.28;;;;;;;12.41;94.33;95061.38;10252758;28;20031;-88
2021/09/22 11:00:39;;;;;;;14.27;7.72;;;;;;;11.95;87.29;95065.03;10244708;29;20035;-88
2021/09/22 11:05:47;;;;;;;11.00;7.43;;;;;;;12.32;90.32;95068.41;10216486;28;20024;-90
2021/09/22 11:10:54;;;;;;;13.68;6.18;;;;;;;12.35;90.11;95069.75;10232106;29;20015;-90
2021/09/22 11:16:17;;;;;;;12.75;7.45;;;;;;;12.21;93.99;95070.34;10243464;29;20031;-89
2021/09/22 11:21:21;;;;;;;8.75;6.25;;;;;;;12.40;94.24;95065.13;10247071;29;20027;-89
2021/09/22 11:26:23;;;;;;;10.25;7.25;;;;;;;12.73;92.89;95060.13;10267309;28;20047;-90
2021/09/22 11:31:24;;;;;;;9.07;6.63;;;;;;;12.45;91.56;95067.03;10243520;28;20063;-88
2021/09/22 11:36:38;;;;;;;13.90;7.65;;;;;;;12.73;93.28;95056.63;10227874;29;20030;-90
2021/09/22 11:41:38;;;;;;;15.30;7.45;;;;;;;12.91;91.15;95047.09;10203949;29;20031;-89
2021/09/22 11:47:07;;;;;;;9.30;6.25;;;;;;;12.96;87.53;95039.78;10165812;29;20531;-84
2021/09/22 11:52:12;;;;;;;9.65;6.30;;;;;;;13.19;85.46;95053.63;10177234;29;20028;-84
2021/09/22 11:57:16;;;;;;;9.02;6.53;;;;;;;13.22;82.70;95047.66;10159724;29;20038;-84
2021/09/22 12:02:17;;;;;;;7.63;5.65;;;;;;;13.10;88.27;95037.25;10165179;29;20528;-85
2021/09/22 12:07:18;;;;;;;8.80;6.20;;;;;;;13.16;91.22;95038.81;10217848;28;20023;-84
2021/09/22 12:12:21;;;;;;;9.00;6.03;;;;;;;12.83;89.74;95035.78;10198029;29;20433;-86
2021/09/22 12:17:27;;;;;;;9.55;5.53;;;;;;;12.74;89.33;95044.75;10201335;29;20062;-84
2021/09/22 12:22:34;;;;;;;10.30;6.70;;;;;;;12.23;92.52;95049.31;10200393;29;20031;-84
2021/09/22 12:27:35;;;;;;;14.68;7.03;;;;;;;11.74;98.23;95052.66;10198885;29;20098;-84
2021/09/22 12:32:49;;;;;;;9.73;6.28;;;;;;;11.63;100.00;95049.19;10223584;28;20086;-85
2021/09/22 12:37:55;;;;;;;8.25;6.40;;;;;;;11.96;98.17;95039.72;10207051;29;20410;-85
2021/09/22 12:42:57;;;;;;;12.70;6.82;;;;;;;11.71;92.17;95045.16;10210237;29;20037;-85
2021/09/22 12:48:01;;;;;;;12.20;6.13;;;;;;;11.68;99.49;95042.97;10208051;28;20504;-85
2021/09/22 12:53:11;;;;;;;12.40;7.15;;;;;;;11.56;99.10;95041.38;10205181;29;20031;-84
2021/09/22 12:58:15;;;;;;;12.02;6.47;;;;;;;11.75;97.87;95044.31;10207318;28;20031;-85
2021/09/22 13:03:42;;;;;;;10.20;7.07;;;;;;;11.39;99.42;95036.28;10203917;28;20029;-85
2021/09/22 13:09:02;;;;;;;10.95;6.72;;;;;;;11.50;96.55;95031.72;10223316;29;20034;-84
2021/09/22 13:14:11;;;;;;;12.45;7.25;;;;;;;11.68;98.51;95040.28;10211227;28;20024;-84
2021/09/22 13:19:12;;;;;;;10.57;6.95;;;;;;;11.62;98.12;95031.41;10208402;28;20031;-85
2021/09/22 13:24:16;;;;;;;16.58;8.32;;;;;;;11.71;99.54;95034.38;10209687;28;20031;-83
2021/09/22 13:29:18;;;;;;;11.00;7.28;;;;;;;11.70;100.00;95030.84;10202354;28;20102;-85
2021/09/22 13:34:19;;;;;;;13.73;7.07;;;;;;;11.67;100.00;95027.91;10208725;28;20513;-89
2021/09/22 13:39:19;;;;;;;10.80;7.60;;;;;;;11.71;100.00;95013.63;10216831;28;20115;-89
2021/09/22 13:44:20;;;;;;;14.07;8.68;;;;;;;11.40;100.00;95037.09;10211061;28;20042;-89
2021/09/22 13:49:20;;;;;;;12.50;8.27;;;;;;;11.35;100.00;95039.81;10211191;28;20573;-86
2021/09/22 13:54:21;;;;;;;14.55;9.15;;;;;;;11.09;100.00;95039.78;10211339;28;20031;-89
2021/09/22 13:59:23;;;;;;;14.85;8.90;;;;;;;10.93;100.00;95050.53;10207167;28;20956;-86
2021/09/22 14:04:23;;;;;;;13.13;8.40;;;;;;;10.76;100.00;95056.16;10208043;28;20121;-86
2021/09/22 14:09:24;;;;;;;16.17;10.02;;;;;;;10.48;100.00;95057.44;10215360;29;20133;-86
2021/09/22 14:14:25;;;;;;;13.43;9.95;;;;;;;10.33;100.00;95068.13;10210363;28;20517;-85
2021/09/22 14:19:25;;;;;;;14.02;8.93;;;;;;;10.03;100.00;95064.22;10210665;28;20654;-84
2021/09/22 14:24:26;;;;;;;14.63;8.90;;;;;;;9.83;100.00;95070.28;10205027;28;20031;-83
2021/09/22 14:29:26;;;;;;;13.93;10.48;;;;;;;9.71;100.00;95081.22;10213841;28;20026;-83
2021/09/22 14:34:27;;;;;;;10.95;6.68;;;;;;;9.40;100.00;95091.75;10204687;29;20110;-84
2021/09/22 14:39:28;;;;;;;10.65;5.45;;;;;;;8.87;100.00;95091.53;10202050;28;20023;-84
2021/09/22 14:44:29;;;;;;;7.90;5.18;;;;;;;8.95;100.00;95093.78;10211974;28;20027;-88
2021/09/22 14:49:29;;;;;;;6.57;4.70;;;;;;;8.41;100.00;95094.50;10205489;29;20047;-94
2021/09/22 14:54:31;;;;;;;9.30;5.68;;;;;;;8.29;100.00;95107.22;10203325;28;20050;-82
2021/09/22 14:59:31;;;;;;;9.93;6.05;;;;;;;8.03;100.00;95102.34;10209326;29;20528;-83
2021/09/22 15:04:32;;;;;;;12.15;7.40;;;;;;;7.68;100.00;95102.69;10224216;28;20050;-86
2021/09/22 15:09:32;;;;;;;9.35;6.65;;;;;;;7.66;100.00;95108.28;10205573;28;20110;-86
2021/09/22 15:14:39;;;;;;;15.15;8.65;;;;;;;7.30;100.00;95096.25;10210740;28;20489;-90
2021/09/22 15:19:39;;;;;;;12.85;8.73;;;;;;;7.27;100.00;95088.69;10247201;28;20038;-86
2021/09/22 15:24:40;;;;;;;15.13;8.25;;;;;;;7.17;100.00;95095.50;10212340;28;20046;-83
2021/09/22 15:29:57;;;;;;;15.88;10.15;;;;;;;7.05;100.00;95093.94;10211835;28;20019;-87
2021/09/22 15:34:58;;;;;;;16.60;8.93;;;;;;;7.11;100.00;95104.47;10221811;28;20460;-86
2021/09/22 15:40:03;;;;;;;14.65;9.02;;;;;;;7.26;100.00;95103.94;10209375;28;20102;-86
2021/09/22 15:45:06;;;;;;;18.02;10.13;;;;;;;7.13;100.00;95104.22;10208826;29;20059;-87
2021/09/22 15:50:15;;;;;;;12.65;7.95;;;;;;;7.22;100.00;95100.13;10225125;28;20023;-86
2021/09/22 15:55:17;;;;;;;12.70;8.35;;;;;;;7.11;100.00;95103.69;10209918;28;20027;-85
2021/09/22 16:00:18;;;;;;;12.48;8.35;;;;;;;6.96;100.00;95120.25;10210681;28;20170;-85
2021/09/22 16:05:19;;;;;;;14.65;8.63;;;;;;;6.89;100.00;95122.25;10221584;28;20031;-84
2021/09/22 16:10:20;;;;;;;10.77;7.35;;;;;;;6.81;100.00;95110.13;10205217;29;20028;-86
2021/09/22 16:15:21;;;;;;;14.32;9.13;;;;;;;6.66;100.00;95108.78;10219360;28;20023;-84
2021/09/22 16:20:25;;;;;;;14.52;10.13;;;;;;;6.72;100.00;95095.53;10204221;28;20028;-84
2021/09/22 16:25:26;;;;;;;12.55;8.85;;;;;;;6.71;100.00;95089.34;10206723;28;20860;-85
2021/09/22 16:30:26;;;;;;;12.82;8.15;;;;;;;6.71;100.00;95092.03;10207015;28;20035;-85
2021/09/22 16:35:27;;;;;;;12.07;8.98;;;;;;;6.73;100.00;95086.47;10194296;28;20038;-86
2021/09/22 16:40:27;;;;;;;11.73;8.65;;;;;;;6.89;100.00;95083.00;10205054;29;20066;-87
2021/09/22 16:45:28;;;;;;;12.65;8.20;;;;;;;6.97;100.00;95079.13;10200787;29;20163;-86
2021/09/22 16:50:29;;;;;;;10.85;8.43;;;;;;;6.90;100.00;95076.59;10202537;29;20497;-86
2021/09/22 16:55:29;;;;;;;10.05;7.35;;;;;;;6.99;100.00;95074.34;10202888;29;20521;-85
2021/09/22 17:00:32;;;;;;;10.50;7.10;;;;;;;6.96;100.00;95064.97;10199565;29;20526;-87
2021/09/22 17:05:34;;;;;;;11.93;7.50;;;;;;;6.94;100.00;95069.72;10191727;29;20050;-84
2021/09/22 17:10:40;;;;;;;13.65;8.07;;;;;;;6.85;100.00;95068.50;10198019;28;20494;-85
2021/09/22 17:15:41;;;;;;;14.63;7.82;;;;;;;6.84;100.00;95066.91;10177512;29;20040;-83
2021/09/22 17:20:41;;;;;;;11.85;7.80;;;;;;;6.67;100.00;95067.66;10194815;29;20457;-84
2021/09/22 17:25:44;;;;;;;13.32;8.25;;;;;;;6.63;100.00;95065.72;10211239;28;20047;-86
2021/09/22 17:30:49;;;;;;;10.55;7.72;;;;;;;6.61;100.00;95076.63;10211669;28;20047;-83
2021/09/22 17:35:51;;;;;;;11.57;8.20;;;;;;;6.49;100.00;95073.22;10153573;29;20122;-83
2021/09/22 17:41:23;;;;;;;11.00;7.93;;;;;;;6.48;100.00;95072.41;10190941;29;20027;-86
2021/09/22 17:46:27;;;;;;;14.35;8.02;;;;;;;6.44;100.00;95078.47;10202433;29;20134;-82
2021/09/22 17:51:30;;;;;;;11.20;7.00;;;;;;;6.54;100.00;95080.50;10248150;28;20489;-84
2021/09/22 17:56:33;;;;;;;13.38;8.75;;;;;;;6.45;100.00;95077.41;10245096;28;20259;-85
2021/09/22 18:01:43;;;;;;;12.95;7.65;;;;;;;6.66;100.00;95076.72;10246917;28;20043;-88
2021/09/22 18:06:53;;;;;;;12.15;8.10;;;;;;;6.69;100.00;95066.63;10254487;29;20033;-89
2021/09/22 18:12:00;;;;;;;10.88;8.65;;;;;;;6.63;100.00;95065.72;10256652;28;20042;-90
2021/09/22 18:17:00;;;;;;;11.77;8.60;;;;;;;6.66;100.00;95065.25;10232772;29;20110;-89
2021/09/22 18:22:06;;;;;;;13.77;9.32;;;;;;;6.74;100.00;95069.38;10253193;28;20118;-89
2021/09/22 18:27:07;;;;;;;15.63;9.45;;;;;;;6.75;100.00;95068.31;10228968;28;20399;-89
2021/09/22 18:32:07;;;;;;;14.32;8.63;;;;;;;6.76;100.00;95080.63;10245467;29;20023;-87
2021/09/22 18:37:08;;;;;;;15.70;10.68;;;;;;;6.83;100.00;95081.28;10257155;28;20059;-88
2021/09/22 18:42:13;;;;;;;17.25;10.90;;;;;;;6.84;100.00;95085.59;10226237;28;20124;-88
2021/09/22 18:47:16;;;;;;;15.88;9.98;;;;;;;6.65;100.00;95079.63;10225713;28;20249;-90
2021/09/22 18:52:17;;;;;;;13.07;9.77;;;;;;;6.65;100.00;95077.78;10244175;28;20027;-87
2021/09/22 18:57:19;;;;;;;16.50;10.32;;;;;;;6.86;100.00;95074.66;10222948;28;20031;-89
2021/09/22 19:02:20;;;;;;;14.70;10.27;;;;;;;6.88;100.00;95092.06;10220341;28;20082;-88
2021/09/22 19:07:23;;;;;;;16.90;11.20;;;;;;;6.90;100.00;95087.28;10202068;29;20573;-87
2021/09/22 19:12:24;;;;;;;13.35;10.35;;;;;;;6.88;100.00;95084.06;10209087;28;20510;-85
2021/09/22 19:17:24;;;;;;;18.05;11.48;;;;;;;6.97;100.00;95082.59;10210952;29;20102;-86
2021/09/22 19:22:28;;;;;;;15.75;11.13;;;;;;;6.85;100.00;95081.84;10200439;28;20031;-88
2021/09/22 19:27:28;;;;;;;16.80;11.40;;;;;;;6.97;100.00;95076.44;10227676;28;20034;-87
2021/09/22 19:32:29;;;;;;;16.40;11.10;;;;;;;7.08;100.00;95075.56;10229314;28;20509;-87
2021/09/22 19:37:42;;;;;;;17.73;12.02;;;;;;;7.13;100.00;95081.00;10240568;28;20038;-88
2021/09/22 19:42:42;;;;;;;17.58;11.88;;;;;;;7.18;100.00;95073.03;10239804;28;20544;-91
2021/09/22 19:47:43;;;;;;;15.60;10.52;;;;;;;7.38;100.00;95078.97;10247793;28;20050;-88
2021/09/22 19:52:44;;;;;;;15.52;11.00;;;;;;;7.34;100.00;95074.13;10237991;29;20063;-84
2021/09/22 19:57:44;;;;;;;18.23;11.05;;;;;;;7.59;100.00;95072.03;10242912;28;20031;-85
2021/09/22 20:02:45;;;;;;;15.65;10.48;;;;;;;7.66;100.00;95083.38;10239138;28;20102;-92
2021/09/22 20:07:47;;;;;;;16.77;11.82;;;;;;;7.77;100.00;95073.63;10233025;29;20051;-84
2021/09/22 20:12:48;;;;;;;13.50;10.57;;;;;;;7.73;100.00;95072.50;10200115;29;20030;-84
2021/09/22 20:17:49;;;;;;;14.93;11.32;;;;;;;7.80;100.00;95067.78;10205109;28;20738;-84
2021/09/22 20:22:51;;;;;;;15.52;11.20;;;;;;;7.84;100.00;95068.91;10199140;28;20031;-84
2021/09/22 20:27:51;;;;;;;17.90;12.18;;;;;;;7.77;100.00;95062.94;10222306;28;20474;-89
2021/09/22 20:32:52;;;;;;;16.85;11.30;;;;;;;7.75;100.00;95073.09;10237006;28;20097;-89
2021/09/22 20:37:52;;;;;;;23.35;12.70;;;;;;;7.75;100.00;95073.09;10252314;28;20394;-88
2021/09/22 20:42:53;;;;;;;20.45;13.15;;;;;;;7.83;100.00;95075.34;10233323;28;20409;-90
2021/09/22 20:47:58;;;;;;;17.30;12.43;;;;;;;7.73;100.00;95067.16;10234845;29;20626;-89
2021/09/22 20:58:38;;;;;;;18.65;13.77;;;;;;;7.59;100.00;95072.88;10240342;28;20539;-88
2021/09/22 21:03:38;;;;;;;19.60;13.02;;;;;;;7.67;100.00;95067.13;10225321;29;20482;-85
2021/09/22 21:08:39;;;;;;;15.27;12.43;;;;;;;7.53;100.00;95057.78;10245179;29;20128;-86
2021/09/22 21:13:40;;;;;;;14.38;10.77;;;;;;;7.55;100.00;95065.56;10249150;29;20031;-86
2021/09/22 21:18:40;;;;;;;17.08;12.13;;;;;;;7.46;100.00;95065.19;10249550;28;20027;-87
2021/09/22 21:23:41;;;;;;;15.82;10.40;;;;;;;7.52;100.00;95064.19;10253162;28;20023;-91
2021/09/22 21:28:41;;;;;;;14.85;11.10;;;;;;;7.42;100.00;95069.41;10252387;28;20020;-91
2021/09/22 21:33:42;;;;;;;15.05;11.35;;;;;;;7.42;100.00;95061.38;10252191;29;20685;-86
2021/09/22 21:39:24;;;;;;;17.75;10.43;;;;;;;7.57;100.00;95058.94;10258106;29;20031;-85
2021/09/22 21:44:24;;;;;;;18.60;12.30;;;;;;;7.44;100.00;95051.25;10264256;28;20478;-85
2021/09/22 21:49:29;;;;;;;17.85;11.45;;;;;;;7.53;100.00;95055.13;10262657;28;20079;-85
2021/09/22 21:54:29;;;;;;;18.65;12.05;;;;;;;7.66;100.00;95043.25;10245296;29;20623;-86
2021/09/22 21:59:30;;;;;;;16.65;11.23;;;;;;;7.69;100.00;95046.25;10245398;29;20143;-85
2021/09/22 22:04:30;;;;;;;19.42;10.60;;;;;;;7.73;100.00;95046.59;10243992;28;20110;-86
2021/09/22 22:09:31;;;;;;;19.98;12.38;;;;;;;7.74;100.00;95032.13;10258403;29;20027;-86
2021/09/22 22:14:33;;;;;;;17.35;12.02;;;;;;;7.60;100.00;95031.69;10267763;29;20023;-86
2021/09/22 22:19:34;;;;;;;20.35;12.40;;;;;;;7.52;100.00;95024.06;10245746;28;20042;-83
2021/09/22 22:24:35;;;;;;;19.70;12.90;;;;;;;7.61;100.00;95029.84;10240169;29;20508;-84
2021/09/22 22:29:36;;;;;;;20.88;13.55;;;;;;;7.76;100.00;95021.19;10239302;29;20110;-82
2021/09/22 22:34:36;;;;;;;19.35;12.65;;;;;;;7.67;100.00;95031.50;10240395;28;20037;-83
2021/09/22 22:39:37;;;;;;;24.33;13.10;;;;;;;7.66;100.00;95022.69;10237864;29;20051;-83
2021/09/22 22:44:37;;;;;;;20.75;13.68;;;;;;;7.62;100.00;95034.94;10237395;28;20027;-83
2021/09/22 22:49:37;;;;;;;23.23;13.90;;;;;;;7.56;100.00;95032.44;10251349;28;20461;-84
2021/09/22 22:54:38;;;;;;;18.90;13.95;;;;;;;7.62;100.00;95029.59;10244798;28;20392;-87
2021/09/22 22:59:38;;;;;;;22.60;13.77;;;;;;;7.72;100.00;95038.78;10248229;28;20124;-85
2021/09/22 23:04:39;;;;;;;20.35;12.07;;;;;;;7.89;100.00;95034.19;10240982;28;20027;-85
2021/09/22 23:09:39;;;;;;;21.70;12.77;;;;;;;7.95;100.00;95040.44;10239963;28;20033;-84
2021/09/22 23:14:40;;;;;;;15.68;10.68;;;;;;;8.07;100.00;95034.97;10236124;28;20035;-84